sensor_id;sensor_type;location;lat;lon;timestamp;P1;durP1;ratioP1;P2;durP2;ratioP2
3726;SDS011;1879;45.876;12.300;2023-03-14T00:00:06;19.27;;;17.27;;
3726;SDS011;1879;45.876;12.300;2023-03-14T00:02:36;22.00;;;17.77;;
3726;SDS011;1879;45.876;12.300;2023-03-14T00:05:04;22.70;;;17.30;;
3726;SDS011;1879;45.876;12.300;2023-03-14T00:07:34;18.03;;;15.67;;
3726;SDS011;1879;45.876;12.300;2023-03-14T00:10:03;18.20;;;16.30;;
3726;SDS011;1879;45.876;12.300;2023-03-14T00:12:31;18.33;;;16.43;;
3726;SDS011;1879;45.876;12.300;2023-03-14T00:14:58;19.20;;;15.93;;
3726;SDS011;1879;45.876;12.300;2023-03-14T00:17:28;17.17;;;15.53;;
3726;SDS011;1879;45.876;12.300;2023-03-14T00:19:55;16.17;;;14.60;;
3726;SDS011;1879;45.876;12.300;2023-03-14T00:22:29;15.47;;;13.90;;
3726;SDS011;1879;45.876;12.300;2023-03-14T00:24:57;15.30;;;13.50;;
3726;SDS011;1879;45.876;12.300;2023-03-14T00:27:24;19.27;;;14.07;;
3726;SDS011;1879;45.876;12.300;2023-03-14T00:29:51;20.30;;;14.50;;
3726;SDS011;1879;45.876;12.300;2023-03-14T00:32:18;17.10;;;13.87;;
3726;SDS011;1879;45.876;12.300;2023-03-14T00:34:45;15.80;;;14.07;;
3726;SDS011;1879;45.876;12.300;2023-03-14T00:37:12;15.87;;;14.37;;
3726;SDS011;1879;45.876;12.300;2023-03-14T00:39:39;15.43;;;13.23;;
3726;SDS011;1879;45.876;12.300;2023-03-14T00:42:07;15.83;;;14.20;;
3726;SDS011;1879;45.876;12.300;2023-03-14T00:44:34;15.73;;;13.10;;
3726;SDS011;1879;45.876;12.300;2023-03-14T00:47:02;14.93;;;13.30;;
3726;SDS011;1879;45.876;12.300;2023-03-14T00:49:28;16.27;;;12.30;;
3726;SDS011;1879;45.876;12.300;2023-03-14T00:51:55;15.20;;;13.70;;
3726;SDS011;1879;45.876;12.300;2023-03-14T00:54:22;13.53;;;12.23;;
3726;SDS011;1879;45.876;12.300;2023-03-14T00:56:49;14.53;;;12.40;;
3726;SDS011;1879;45.876;12.300;2023-03-14T00:59:18;14.70;;;12.17;;
3726;SDS011;1879;45.876;12.300;2023-03-14T01:01:45;12.37;;;10.10;;
3726;SDS011;1879;45.876;12.300;2023-03-14T01:04:12;14.63;;;12.10;;
3726;SDS011;1879;45.876;12.300;2023-03-14T01:06:39;16.80;;;11.73;;
3726;SDS011;1879;45.876;12.300;2023-03-14T01:09:12;13.20;;;11.80;;
3726;SDS011;1879;45.876;12.300;2023-03-14T01:11:39;13.03;;;11.73;;
3726;SDS011;1879;45.876;12.300;2023-03-14T01:14:07;13.73;;;12.33;;
3726;SDS011;1879;45.876;12.300;2023-03-14T01:16:35;12.30;;;11.00;;
3726;SDS011;1879;45.876;12.300;2023-03-14T01:19:02;13.40;;;10.23;;
3726;SDS011;1879;45.876;12.300;2023-03-14T01:21:30;13.07;;;11.67;;
3726;SDS011;1879;45.876;12.300;2023-03-14T01:23:59;13.17;;;11.57;;
3726;SDS011;1879;45.876;12.300;2023-03-14T01:26:29;12.83;;;11.00;;
3726;SDS011;1879;45.876;12.300;2023-03-14T01:28:57;12.00;;;10.67;;
3726;SDS011;1879;45.876;12.300;2023-03-14T01:31:24;13.13;;;11.10;;
3726;SDS011;1879;45.876;12.300;2023-03-14T01:33:54;12.80;;;11.43;;
3726;SDS011;1879;45.876;12.300;2023-03-14T01:36:21;13.77;;;12.47;;
3726;SDS011;1879;45.876;12.300;2023-03-14T01:38:48;13.70;;;12.30;;
3726;SDS011;1879;45.876;12.300;2023-03-14T01:41:16;14.20;;;12.30;;
3726;SDS011;1879;45.876;12.300;2023-03-14T01:43:44;12.53;;;11.23;;
3726;SDS011;1879;45.876;12.300;2023-03-14T01:46:19;13.73;;;11.90;;
3726;SDS011;1879;45.876;12.300;2023-03-14T01:48:51;13.97;;;11.00;;
3726;SDS011;1879;45.876;12.300;2023-03-14T01:51:29;13.20;;;10.80;;
3726;SDS011;1879;45.876;12.300;2023-03-14T01:54:00;14.60;;;11.20;;
3726;SDS011;1879;45.876;12.300;2023-03-14T01:56:31;15.37;;;10.60;;
3726;SDS011;1879;45.876;12.300;2023-03-14T01:58:59;12.63;;;10.63;;
3726;SDS011;1879;45.876;12.300;2023-03-14T02:01:30;11.33;;;10.20;;
3726;SDS011;1879;45.876;12.300;2023-03-14T02:03:59;12.93;;;10.20;;
3726;SDS011;1879;45.876;12.300;2023-03-14T02:06:31;12.03;;;10.83;;
3726;SDS011;1879;45.876;12.300;2023-03-14T02:09:05;12.43;;;9.43;;
3726;SDS011;1879;45.876;12.300;2023-03-14T02:11:32;12.17;;;10.50;;
3726;SDS011;1879;45.876;12.300;2023-03-14T02:13:59;12.00;;;9.33;;
3726;SDS011;1879;45.876;12.300;2023-03-14T02:16:27;10.77;;;9.37;;
3726;SDS011;1879;45.876;12.300;2023-03-14T02:18:54;13.80;;;10.50;;
3726;SDS011;1879;45.876;12.300;2023-03-14T02:21:25;10.43;;;9.17;;
3726;SDS011;1879;45.876;12.300;2023-03-14T02:24:05;13.30;;;10.23;;
3726;SDS011;1879;45.876;12.300;2023-03-14T02:26:40;10.23;;;9.20;;
3726;SDS011;1879;45.876;12.300;2023-03-14T02:29:12;10.00;;;9.00;;
3726;SDS011;1879;45.876;12.300;2023-03-14T02:31:39;12.43;;;8.93;;
3726;SDS011;1879;45.876;12.300;2023-03-14T02:34:06;13.73;;;9.40;;
3726;SDS011;1879;45.876;12.300;2023-03-14T02:36:33;11.37;;;10.20;;
3726;SDS011;1879;45.876;12.300;2023-03-14T02:39:03;11.53;;;9.53;;
3726;SDS011;1879;45.876;12.300;2023-03-14T02:41:34;10.67;;;9.40;;
3726;SDS011;1879;45.876;12.300;2023-03-14T02:44:01;11.90;;;10.10;;
3726;SDS011;1879;45.876;12.300;2023-03-14T02:46:29;13.70;;;9.77;;
3726;SDS011;1879;45.876;12.300;2023-03-14T02:48:57;10.23;;;9.13;;
3726;SDS011;1879;45.876;12.300;2023-03-14T02:51:29;10.03;;;9.03;;
3726;SDS011;1879;45.876;12.300;2023-03-14T02:53:57;14.10;;;9.87;;
3726;SDS011;1879;45.876;12.300;2023-03-14T02:56:24;11.90;;;8.57;;
3726;SDS011;1879;45.876;12.300;2023-03-14T02:58:52;13.77;;;9.33;;
3726;SDS011;1879;45.876;12.300;2023-03-14T03:01:19;11.60;;;9.80;;
3726;SDS011;1879;45.876;12.300;2023-03-14T03:03:47;14.20;;;8.63;;
3726;SDS011;1879;45.876;12.300;2023-03-14T03:06:14;11.33;;;9.87;;
3726;SDS011;1879;45.876;12.300;2023-03-14T03:08:41;14.10;;;9.97;;
3726;SDS011;1879;45.876;12.300;2023-03-14T03:11:08;11.70;;;9.30;;
3726;SDS011;1879;45.876;12.300;2023-03-14T03:13:35;11.17;;;9.37;;
3726;SDS011;1879;45.876;12.300;2023-03-14T03:16:02;12.23;;;10.70;;
3726;SDS011;1879;45.876;12.300;2023-03-14T03:18:30;13.07;;;11.67;;
3726;SDS011;1879;45.876;12.300;2023-03-14T03:21:00;12.43;;;10.90;;
3726;SDS011;1879;45.876;12.300;2023-03-14T03:23:27;12.50;;;10.50;;
3726;SDS011;1879;45.876;12.300;2023-03-14T03:25:54;13.50;;;11.93;;
3726;SDS011;1879;45.876;12.300;2023-03-14T03:28:21;19.23;;;10.63;;
3726;SDS011;1879;45.876;12.300;2023-03-14T03:30:48;11.43;;;10.23;;
3726;SDS011;1879;45.876;12.300;2023-03-14T03:33:15;12.73;;;10.70;;
3726;SDS011;1879;45.876;12.300;2023-03-14T03:35:43;11.20;;;9.60;;
3726;SDS011;1879;45.876;12.300;2023-03-14T03:38:12;13.23;;;10.83;;
3726;SDS011;1879;45.876;12.300;2023-03-14T03:40:39;12.10;;;10.97;;
3726;SDS011;1879;45.876;12.300;2023-03-14T03:43:06;11.23;;;10.00;;
3726;SDS011;1879;45.876;12.300;2023-03-14T03:45:34;12.93;;;10.83;;
3726;SDS011;1879;45.876;12.300;2023-03-14T03:48:01;10.97;;;9.73;;
3726;SDS011;1879;45.876;12.300;2023-03-14T03:50:28;14.30;;;10.50;;
3726;SDS011;1879;45.876;12.300;2023-03-14T03:52:55;11.80;;;10.60;;
3726;SDS011;1879;45.876;12.300;2023-03-14T03:55:23;12.37;;;11.00;;
3726;SDS011;1879;45.876;12.300;2023-03-14T03:57:53;13.10;;;10.77;;
3726;SDS011;1879;45.876;12.300;2023-03-14T04:00:20;13.53;;;10.63;;
3726;SDS011;1879;45.876;12.300;2023-03-14T04:02:50;15.37;;;11.53;;
3726;SDS011;1879;45.876;12.300;2023-03-14T04:05:17;13.17;;;11.87;;
3726;SDS011;1879;45.876;12.300;2023-03-14T04:07:44;12.70;;;11.50;;
3726;SDS011;1879;45.876;12.300;2023-03-14T04:10:11;11.33;;;10.10;;
3726;SDS011;1879;45.876;12.300;2023-03-14T04:12:39;14.30;;;11.37;;
3726;SDS011;1879;45.876;12.300;2023-03-14T04:15:07;13.00;;;11.37;;
3726;SDS011;1879;45.876;12.300;2023-03-14T04:17:34;13.23;;;11.43;;
3726;SDS011;1879;45.876;12.300;2023-03-14T04:20:01;12.70;;;11.50;;
3726;SDS011;1879;45.876;12.300;2023-03-14T04:22:29;11.07;;;10.07;;
3726;SDS011;1879;45.876;12.300;2023-03-14T04:24:56;13.10;;;11.90;;
3726;SDS011;1879;45.876;12.300;2023-03-14T04:27:23;12.20;;;11.10;;
3726;SDS011;1879;45.876;12.300;2023-03-14T04:29:52;12.37;;;11.07;;
3726;SDS011;1879;45.876;12.300;2023-03-14T04:32:19;13.13;;;11.60;;
3726;SDS011;1879;45.876;12.300;2023-03-14T04:34:46;14.77;;;11.50;;
3726;SDS011;1879;45.876;12.300;2023-03-14T04:37:13;13.37;;;10.90;;
3726;SDS011;1879;45.876;12.300;2023-03-14T04:39:40;13.10;;;11.70;;
3726;SDS011;1879;45.876;12.300;2023-03-14T04:42:07;12.70;;;11.00;;
3726;SDS011;1879;45.876;12.300;2023-03-14T04:44:34;12.00;;;10.50;;
3726;SDS011;1879;45.876;12.300;2023-03-14T04:47:02;12.50;;;9.90;;
3726;SDS011;1879;45.876;12.300;2023-03-14T04:49:29;12.90;;;9.87;;
3726;SDS011;1879;45.876;12.300;2023-03-14T04:51:56;12.10;;;10.90;;
3726;SDS011;1879;45.876;12.300;2023-03-14T04:54:24;12.13;;;9.20;;
3726;SDS011;1879;45.876;12.300;2023-03-14T04:56:51;13.40;;;9.97;;
3726;SDS011;1879;45.876;12.300;2023-03-14T04:59:18;12.27;;;10.10;;
3726;SDS011;1879;45.876;12.300;2023-03-14T05:01:45;11.10;;;9.70;;
3726;SDS011;1879;45.876;12.300;2023-03-14T05:04:15;10.07;;;9.10;;
3726;SDS011;1879;45.876;12.300;2023-03-14T05:06:42;10.90;;;9.10;;
3726;SDS011;1879;45.876;12.300;2023-03-14T05:09:09;13.10;;;9.57;;
3726;SDS011;1879;45.876;12.300;2023-03-14T05:11:36;12.07;;;10.87;;
3726;SDS011;1879;45.876;12.300;2023-03-14T05:14:03;12.90;;;11.20;;
3726;SDS011;1879;45.876;12.300;2023-03-14T05:16:30;10.93;;;9.80;;
3726;SDS011;1879;45.876;12.300;2023-03-14T05:18:57;12.47;;;11.17;;
3726;SDS011;1879;45.876;12.300;2023-03-14T05:21:27;12.13;;;10.93;;
3726;SDS011;1879;45.876;12.300;2023-03-14T05:23:54;12.63;;;11.37;;
3726;SDS011;1879;45.876;12.300;2023-03-14T05:26:22;11.80;;;9.90;;
3726;SDS011;1879;45.876;12.300;2023-03-14T05:28:49;14.00;;;12.27;;
3726;SDS011;1879;45.876;12.300;2023-03-14T05:31:16;11.90;;;10.60;;
3726;SDS011;1879;45.876;12.300;2023-03-14T05:33:43;12.10;;;10.80;;
3726;SDS011;1879;45.876;12.300;2023-03-14T05:36:10;12.87;;;10.67;;
3726;SDS011;1879;45.876;12.300;2023-03-14T05:38:38;13.30;;;11.07;;
3726;SDS011;1879;45.876;12.300;2023-03-14T05:41:05;12.00;;;10.70;;
3726;SDS011;1879;45.876;12.300;2023-03-14T05:43:32;12.43;;;11.13;;
3726;SDS011;1879;45.876;12.300;2023-03-14T05:45:59;11.43;;;10.27;;
3726;SDS011;1879;45.876;12.300;2023-03-14T05:48:26;11.30;;;10.20;;
3726;SDS011;1879;45.876;12.300;2023-03-14T05:50:57;14.00;;;9.70;;
3726;SDS011;1879;45.876;12.300;2023-03-14T05:53:24;11.50;;;10.27;;
3726;SDS011;1879;45.876;12.300;2023-03-14T05:55:53;10.30;;;9.30;;
3726;SDS011;1879;45.876;12.300;2023-03-14T05:58:21;9.23;;;8.23;;
3726;SDS011;1879;45.876;12.300;2023-03-14T06:00:48;11.40;;;9.37;;
3726;SDS011;1879;45.876;12.300;2023-03-14T06:03:16;13.90;;;7.97;;
3726;SDS011;1879;45.876;12.300;2023-03-14T06:05:43;9.90;;;7.57;;
3726;SDS011;1879;45.876;12.300;2023-03-14T06:08:10;8.30;;;7.30;;
3726;SDS011;1879;45.876;12.300;2023-03-14T06:10:37;8.00;;;7.20;;
3726;SDS011;1879;45.876;12.300;2023-03-14T06:13:05;8.57;;;7.77;;
3726;SDS011;1879;45.876;12.300;2023-03-14T06:15:32;7.97;;;7.27;;
3726;SDS011;1879;45.876;12.300;2023-03-14T06:18:00;9.33;;;8.43;;
3726;SDS011;1879;45.876;12.300;2023-03-14T06:20:27;9.23;;;8.20;;
3726;SDS011;1879;45.876;12.300;2023-03-14T06:22:54;9.73;;;7.30;;
3726;SDS011;1879;45.876;12.300;2023-03-14T06:25:21;10.80;;;8.73;;
3726;SDS011;1879;45.876;12.300;2023-03-14T06:27:48;9.30;;;8.00;;
3726;SDS011;1879;45.876;12.300;2023-03-14T06:30:16;9.07;;;7.73;;
3726;SDS011;1879;45.876;12.300;2023-03-14T06:32:43;12.53;;;8.50;;
3726;SDS011;1879;45.876;12.300;2023-03-14T06:35:10;12.23;;;8.03;;
3726;SDS011;1879;45.876;12.300;2023-03-14T06:37:38;11.27;;;8.47;;
3726;SDS011;1879;45.876;12.300;2023-03-14T06:40:05;10.23;;;9.13;;
3726;SDS011;1879;45.876;12.300;2023-03-14T06:42:33;11.13;;;8.33;;
3726;SDS011;1879;45.876;12.300;2023-03-14T06:45:00;11.67;;;9.33;;
3726;SDS011;1879;45.876;12.300;2023-03-14T06:47:29;10.83;;;8.37;;
3726;SDS011;1879;45.876;12.300;2023-03-14T06:49:56;16.83;;;10.50;;
3726;SDS011;1879;45.876;12.300;2023-03-14T06:52:23;13.70;;;9.30;;
3726;SDS011;1879;45.876;12.300;2023-03-14T06:54:50;12.23;;;8.97;;
3726;SDS011;1879;45.876;12.300;2023-03-14T06:57:17;11.13;;;8.90;;
3726;SDS011;1879;45.876;12.300;2023-03-14T06:59:44;11.23;;;8.43;;
3726;SDS011;1879;45.876;12.300;2023-03-14T07:02:11;14.13;;;10.10;;
3726;SDS011;1879;45.876;12.300;2023-03-14T07:04:40;9.03;;;8.13;;
3726;SDS011;1879;45.876;12.300;2023-03-14T07:07:07;15.13;;;9.10;;
3726;SDS011;1879;45.876;12.300;2023-03-14T07:09:34;9.70;;;8.23;;
3726;SDS011;1879;45.876;12.300;2023-03-14T07:12:01;8.90;;;7.90;;
3726;SDS011;1879;45.876;12.300;2023-03-14T07:14:29;10.43;;;8.70;;
3726;SDS011;1879;45.876;12.300;2023-03-14T07:16:56;13.73;;;8.00;;
3726;SDS011;1879;45.876;12.300;2023-03-14T07:19:26;11.80;;;8.30;;
3726;SDS011;1879;45.876;12.300;2023-03-14T07:21:54;11.80;;;7.80;;
3726;SDS011;1879;45.876;12.300;2023-03-14T07:24:22;14.03;;;8.73;;
3726;SDS011;1879;45.876;12.300;2023-03-14T07:26:49;11.67;;;8.97;;
3726;SDS011;1879;45.876;12.300;2023-03-14T07:29:16;13.40;;;8.77;;
3726;SDS011;1879;45.876;12.300;2023-03-14T07:31:43;12.60;;;9.10;;
3726;SDS011;1879;45.876;12.300;2023-03-14T07:34:10;15.10;;;9.37;;
3726;SDS011;1879;45.876;12.300;2023-03-14T07:36:37;14.43;;;10.10;;
3726;SDS011;1879;45.876;12.300;2023-03-14T07:39:06;14.40;;;9.53;;
3726;SDS011;1879;45.876;12.300;2023-03-14T07:41:33;10.83;;;9.30;;
3726;SDS011;1879;45.876;12.300;2023-03-14T07:44:00;12.57;;;10.70;;
3726;SDS011;1879;45.876;12.300;2023-03-14T07:46:27;16.07;;;11.83;;
3726;SDS011;1879;45.876;12.300;2023-03-14T07:48:54;13.70;;;12.23;;
3726;SDS011;1879;45.876;12.300;2023-03-14T07:51:21;17.90;;;10.83;;
3726;SDS011;1879;45.876;12.300;2023-03-14T07:53:48;15.20;;;11.23;;
3726;SDS011;1879;45.876;12.300;2023-03-14T07:56:16;14.57;;;12.00;;
3726;SDS011;1879;45.876;12.300;2023-03-14T07:58:45;12.37;;;10.53;;
3726;SDS011;1879;45.876;12.300;2023-03-14T08:01:12;13.37;;;10.57;;
3726;SDS011;1879;45.876;12.300;2023-03-14T08:03:39;12.37;;;10.80;;
3726;SDS011;1879;45.876;12.300;2023-03-14T08:06:06;12.77;;;11.30;;
3726;SDS011;1879;45.876;12.300;2023-03-14T08:08:33;12.90;;;11.30;;
3726;SDS011;1879;45.876;12.300;2023-03-14T08:11:03;14.00;;;11.47;;
3726;SDS011;1879;45.876;12.300;2023-03-14T08:13:32;16.60;;;12.23;;
3726;SDS011;1879;45.876;12.300;2023-03-14T08:15:59;14.73;;;13.17;;
3726;SDS011;1879;45.876;12.300;2023-03-14T08:18:26;16.83;;;13.40;;
3726;SDS011;1879;45.876;12.300;2023-03-14T08:20:53;14.83;;;13.33;;
3726;SDS011;1879;45.876;12.300;2023-03-14T08:23:20;17.73;;;14.70;;
3726;SDS011;1879;45.876;12.300;2023-03-14T08:25:48;16.50;;;14.50;;
3726;SDS011;1879;45.876;12.300;2023-03-14T08:28:15;18.33;;;15.00;;
3726;SDS011;1879;45.876;12.300;2023-03-14T08:30:43;17.70;;;15.10;;
3726;SDS011;1879;45.876;12.300;2023-03-14T08:33:10;17.40;;;15.00;;
3726;SDS011;1879;45.876;12.300;2023-03-14T08:35:37;15.87;;;14.17;;
3726;SDS011;1879;45.876;12.300;2023-03-14T08:38:05;20.73;;;15.33;;
3726;SDS011;1879;45.876;12.300;2023-03-14T08:40:32;14.50;;;13.00;;
3726;SDS011;1879;45.876;12.300;2023-03-14T08:42:59;16.73;;;14.17;;
3726;SDS011;1879;45.876;12.300;2023-03-14T08:45:26;17.90;;;13.20;;
3726;SDS011;1879;45.876;12.300;2023-03-14T08:47:54;18.63;;;12.90;;
3726;SDS011;1879;45.876;12.300;2023-03-14T08:50:21;17.37;;;11.87;;
3726;SDS011;1879;45.876;12.300;2023-03-14T08:52:49;18.00;;;13.80;;
3726;SDS011;1879;45.876;12.300;2023-03-14T08:55:16;14.00;;;11.60;;
3726;SDS011;1879;45.876;12.300;2023-03-14T08:57:43;13.67;;;10.70;;
3726;SDS011;1879;45.876;12.300;2023-03-14T09:00:11;21.90;;;11.70;;
3726;SDS011;1879;45.876;12.300;2023-03-14T09:02:39;17.77;;;13.20;;
3726;SDS011;1879;45.876;12.300;2023-03-14T09:05:08;14.83;;;10.57;;
3726;SDS011;1879;45.876;12.300;2023-03-14T09:07:36;14.20;;;10.67;;
3726;SDS011;1879;45.876;12.300;2023-03-14T09:10:04;17.43;;;11.80;;
3726;SDS011;1879;45.876;12.300;2023-03-14T09:12:31;14.70;;;10.53;;
3726;SDS011;1879;45.876;12.300;2023-03-14T09:14:58;19.00;;;11.67;;
3726;SDS011;1879;45.876;12.300;2023-03-14T09:17:25;22.70;;;13.80;;
3726;SDS011;1879;45.876;12.300;2023-03-14T09:19:52;15.97;;;13.27;;
3726;SDS011;1879;45.876;12.300;2023-03-14T09:22:21;14.47;;;12.43;;
3726;SDS011;1879;45.876;12.300;2023-03-14T09:24:48;20.33;;;13.53;;
3726;SDS011;1879;45.876;12.300;2023-03-14T09:27:15;15.63;;;12.00;;
3726;SDS011;1879;45.876;12.300;2023-03-14T09:29:42;15.63;;;12.03;;
3726;SDS011;1879;45.876;12.300;2023-03-14T09:32:09;24.10;;;14.00;;
3726;SDS011;1879;45.876;12.300;2023-03-14T09:34:36;16.93;;;11.93;;
3726;SDS011;1879;45.876;12.300;2023-03-14T09:37:02;15.50;;;13.70;;
3726;SDS011;1879;45.876;12.300;2023-03-14T09:39:31;19.60;;;12.07;;
3726;SDS011;1879;45.876;12.300;2023-03-14T09:41:58;16.40;;;11.50;;
3726;SDS011;1879;45.876;12.300;2023-03-14T09:44:31;15.13;;;11.43;;
3726;SDS011;1879;45.876;12.300;2023-03-14T09:47:01;20.57;;;11.67;;
3726;SDS011;1879;45.876;12.300;2023-03-14T09:49:32;16.00;;;9.57;;
3726;SDS011;1879;45.876;12.300;2023-03-14T09:52:01;12.30;;;10.67;;
3726;SDS011;1879;45.876;12.300;2023-03-14T09:54:34;13.73;;;11.00;;
3726;SDS011;1879;45.876;12.300;2023-03-14T09:57:02;14.23;;;9.97;;
3726;SDS011;1879;45.876;12.300;2023-03-14T09:59:31;17.80;;;9.97;;
3726;SDS011;1879;45.876;12.300;2023-03-14T10:02:01;15.37;;;11.43;;
3726;SDS011;1879;45.876;12.300;2023-03-14T10:04:37;17.33;;;10.10;;
3726;SDS011;1879;45.876;12.300;2023-03-14T10:07:09;15.43;;;11.20;;
3726;SDS011;1879;45.876;12.300;2023-03-14T10:09:43;15.80;;;10.23;;
3726;SDS011;1879;45.876;12.300;2023-03-14T10:12:11;17.50;;;9.60;;
3726;SDS011;1879;45.876;12.300;2023-03-14T10:14:45;18.37;;;9.87;;
3726;SDS011;1879;45.876;12.300;2023-03-14T10:17:14;14.77;;;9.10;;
3726;SDS011;1879;45.876;12.300;2023-03-14T10:19:52;17.50;;;9.10;;
3726;SDS011;1879;45.876;12.300;2023-03-14T10:22:21;14.20;;;9.07;;
3726;SDS011;1879;45.876;12.300;2023-03-14T10:24:53;14.60;;;8.47;;
3726;SDS011;1879;45.876;12.300;2023-03-14T10:27:22;16.10;;;9.70;;
3726;SDS011;1879;45.876;12.300;2023-03-14T10:29:56;15.37;;;8.87;;
3726;SDS011;1879;45.876;12.300;2023-03-14T10:32:28;17.20;;;9.47;;
3726;SDS011;1879;45.876;12.300;2023-03-14T10:35:07;15.37;;;8.70;;
3726;SDS011;1879;45.876;12.300;2023-03-14T10:37:47;19.57;;;9.50;;
3726;SDS011;1879;45.876;12.300;2023-03-14T10:40:19;20.30;;;8.80;;
3726;SDS011;1879;45.876;12.300;2023-03-14T10:42:50;12.20;;;8.97;;
3726;SDS011;1879;45.876;12.300;2023-03-14T10:45:34;17.07;;;9.57;;
3726;SDS011;1879;45.876;12.300;2023-03-14T10:48:13;14.30;;;8.40;;
3726;SDS011;1879;45.876;12.300;2023-03-14T10:50:49;11.73;;;8.27;;
3726;SDS011;1879;45.876;12.300;2023-03-14T10:53:20;12.90;;;8.87;;
3726;SDS011;1879;45.876;12.300;2023-03-14T10:55:49;14.87;;;9.50;;
3726;SDS011;1879;45.876;12.300;2023-03-14T10:58:20;14.57;;;9.00;;
3726;SDS011;1879;45.876;12.300;2023-03-14T11:00:50;14.00;;;8.00;;
3726;SDS011;1879;45.876;12.300;2023-03-14T11:03:22;11.50;;;8.87;;
3726;SDS011;1879;45.876;12.300;2023-03-14T11:05:53;13.60;;;8.70;;
3726;SDS011;1879;45.876;12.300;2023-03-14T11:08:25;14.30;;;8.70;;
3726;SDS011;1879;45.876;12.300;2023-03-14T11:11:06;13.73;;;7.53;;
3726;SDS011;1879;45.876;12.300;2023-03-14T11:13:42;15.90;;;7.80;;
3726;SDS011;1879;45.876;12.300;2023-03-14T11:16:15;10.40;;;7.67;;
3726;SDS011;1879;45.876;12.300;2023-03-14T11:18:51;16.67;;;9.07;;
3726;SDS011;1879;45.876;12.300;2023-03-14T11:21:45;15.03;;;7.93;;
3726;SDS011;1879;45.876;12.300;2023-03-14T11:24:23;13.00;;;8.33;;
3726;SDS011;1879;45.876;12.300;2023-03-14T11:27:17;13.70;;;7.37;;
3726;SDS011;1879;45.876;12.300;2023-03-14T11:29:50;13.30;;;7.37;;
3726;SDS011;1879;45.876;12.300;2023-03-14T11:32:38;15.30;;;7.77;;
3726;SDS011;1879;45.876;12.300;2023-03-14T11:35:14;12.57;;;7.63;;
3726;SDS011;1879;45.876;12.300;2023-03-14T11:37:46;12.67;;;6.57;;
3726;SDS011;1879;45.876;12.300;2023-03-14T11:40:16;12.17;;;7.17;;
3726;SDS011;1879;45.876;12.300;2023-03-14T11:42:47;18.27;;;7.13;;
3726;SDS011;1879;45.876;12.300;2023-03-14T11:45:22;15.60;;;7.47;;
3726;SDS011;1879;45.876;12.300;2023-03-14T11:48:01;18.37;;;7.80;;
3726;SDS011;1879;45.876;12.300;2023-03-14T11:50:40;14.97;;;7.77;;
3726;SDS011;1879;45.876;12.300;2023-03-14T11:53:11;16.60;;;7.87;;
3726;SDS011;1879;45.876;12.300;2023-03-14T11:55:43;12.07;;;8.00;;
3726;SDS011;1879;45.876;12.300;2023-03-14T11:58:14;11.53;;;8.33;;
3726;SDS011;1879;45.876;12.300;2023-03-14T12:00:45;14.67;;;7.73;;
3726;SDS011;1879;45.876;12.300;2023-03-14T12:03:21;12.20;;;6.70;;
3726;SDS011;1879;45.876;12.300;2023-03-14T12:05:59;12.20;;;7.67;;
3726;SDS011;1879;45.876;12.300;2023-03-14T12:08:38;10.90;;;6.77;;
3726;SDS011;1879;45.876;12.300;2023-03-14T12:11:12;8.90;;;6.53;;
3726;SDS011;1879;45.876;12.300;2023-03-14T12:13:47;11.97;;;7.47;;
3726;SDS011;1879;45.876;12.300;2023-03-14T12:16:24;12.17;;;7.37;;
3726;SDS011;1879;45.876;12.300;2023-03-14T12:19:21;10.13;;;7.30;;
3726;SDS011;1879;45.876;12.300;2023-03-14T12:21:57;8.90;;;6.10;;
3726;SDS011;1879;45.876;12.300;2023-03-14T12:24:28;10.83;;;6.33;;
3726;SDS011;1879;45.876;12.300;2023-03-14T12:26:58;10.43;;;5.97;;
3726;SDS011;1879;45.876;12.300;2023-03-14T12:29:27;10.37;;;6.57;;
3726;SDS011;1879;45.876;12.300;2023-03-14T12:32:09;10.63;;;6.43;;
3726;SDS011;1879;45.876;12.300;2023-03-14T12:34:48;7.97;;;5.97;;
3726;SDS011;1879;45.876;12.300;2023-03-14T12:37:29;11.87;;;6.30;;
3726;SDS011;1879;45.876;12.300;2023-03-14T12:40:15;8.00;;;6.10;;
3726;SDS011;1879;45.876;12.300;2023-03-14T12:42:51;10.73;;;6.87;;
3726;SDS011;1879;45.876;12.300;2023-03-14T12:45:29;13.33;;;6.63;;
3726;SDS011;1879;45.876;12.300;2023-03-14T12:48:01;11.80;;;7.70;;
3726;SDS011;1879;45.876;12.300;2023-03-14T12:50:36;13.27;;;7.10;;
3726;SDS011;1879;45.876;12.300;2023-03-14T12:56:06;12.40;;;6.47;;
3726;SDS011;1879;45.876;12.300;2023-03-14T12:58:44;9.30;;;4.90;;
3726;SDS011;1879;45.876;12.300;2023-03-14T13:01:21;6.40;;;5.07;;
3726;SDS011;1879;45.876;12.300;2023-03-14T13:03:49;7.00;;;5.27;;
3726;SDS011;1879;45.876;12.300;2023-03-14T13:12:23;6.40;;;4.90;;
3726;SDS011;1879;45.876;12.300;2023-03-14T13:14:57;9.00;;;4.50;;
3726;SDS011;1879;45.876;12.300;2023-03-14T13:17:27;8.90;;;4.77;;
3726;SDS011;1879;45.876;12.300;2023-03-14T13:19:57;7.27;;;4.57;;
3726;SDS011;1879;45.876;12.300;2023-03-14T13:22:31;9.37;;;4.87;;
3726;SDS011;1879;45.876;12.300;2023-03-14T13:25:02;6.97;;;4.40;;
3726;SDS011;1879;45.876;12.300;2023-03-14T13:27:32;8.63;;;5.17;;
3726;SDS011;1879;45.876;12.300;2023-03-14T13:30:04;8.00;;;5.40;;
3726;SDS011;1879;45.876;12.300;2023-03-14T13:32:43;8.50;;;5.27;;
3726;SDS011;1879;45.876;12.300;2023-03-14T13:35:15;11.67;;;6.97;;
3726;SDS011;1879;45.876;12.300;2023-03-14T13:37:43;9.30;;;6.10;;
3726;SDS011;1879;45.876;12.300;2023-03-14T13:40:18;13.40;;;6.20;;
3726;SDS011;1879;45.876;12.300;2023-03-14T13:42:47;13.47;;;5.40;;
3726;SDS011;1879;45.876;12.300;2023-03-14T13:45:14;11.37;;;5.43;;
3726;SDS011;1879;45.876;12.300;2023-03-14T13:47:42;12.00;;;5.30;;
3726;SDS011;1879;45.876;12.300;2023-03-14T13:50:14;9.00;;;5.87;;
3726;SDS011;1879;45.876;12.300;2023-03-14T13:52:43;8.40;;;5.43;;
3726;SDS011;1879;45.876;12.300;2023-03-14T13:55:14;11.30;;;5.33;;
3726;SDS011;1879;45.876;12.300;2023-03-14T13:57:42;9.90;;;5.00;;
3726;SDS011;1879;45.876;12.300;2023-03-14T14:00:17;9.30;;;4.90;;
3726;SDS011;1879;45.876;12.300;2023-03-14T14:02:47;6.50;;;4.27;;
3726;SDS011;1879;45.876;12.300;2023-03-14T14:05:14;9.80;;;5.33;;
3726;SDS011;1879;45.876;12.300;2023-03-14T14:07:42;9.30;;;4.90;;
3726;SDS011;1879;45.876;12.300;2023-03-14T14:10:11;9.07;;;4.90;;
3726;SDS011;1879;45.876;12.300;2023-03-14T14:12:39;11.23;;;4.63;;
3726;SDS011;1879;45.876;12.300;2023-03-14T14:15:11;11.00;;;4.43;;
3726;SDS011;1879;45.876;12.300;2023-03-14T14:17:42;9.60;;;4.73;;
3726;SDS011;1879;45.876;12.300;2023-03-14T14:20:18;7.50;;;4.63;;
3726;SDS011;1879;45.876;12.300;2023-03-14T14:22:48;6.87;;;4.40;;
3726;SDS011;1879;45.876;12.300;2023-03-14T14:25:16;12.30;;;4.27;;
3726;SDS011;1879;45.876;12.300;2023-03-14T14:27:46;8.63;;;4.13;;
3726;SDS011;1879;45.876;12.300;2023-03-14T14:30:31;8.30;;;4.93;;
3726;SDS011;1879;45.876;12.300;2023-03-14T14:33:15;7.00;;;4.20;;
3726;SDS011;1879;45.876;12.300;2023-03-14T14:35:50;5.50;;;4.23;;
3726;SDS011;1879;45.876;12.300;2023-03-14T14:38:20;7.30;;;3.93;;
3726;SDS011;1879;45.876;12.300;2023-03-14T14:40:48;10.43;;;5.07;;
3726;SDS011;1879;45.876;12.300;2023-03-14T14:43:17;9.90;;;5.73;;
3726;SDS011;1879;45.876;12.300;2023-03-14T14:45:49;9.17;;;5.40;;
3726;SDS011;1879;45.876;12.300;2023-03-14T14:48:19;11.63;;;5.90;;
3726;SDS011;1879;45.876;12.300;2023-03-14T14:50:56;7.23;;;4.90;;
3726;SDS011;1879;45.876;12.300;2023-03-14T14:53:27;7.07;;;4.90;;
3726;SDS011;1879;45.876;12.300;2023-03-14T14:55:57;12.37;;;5.50;;
3726;SDS011;1879;45.876;12.300;2023-03-14T14:58:30;11.37;;;4.97;;
3726;SDS011;1879;45.876;12.300;2023-03-14T15:01:04;8.27;;;5.50;;
3726;SDS011;1879;45.876;12.300;2023-03-14T15:03:33;9.10;;;5.23;;
3726;SDS011;1879;45.876;12.300;2023-03-14T15:06:03;8.13;;;4.53;;